createdAt,value
2022-07-26T00:02:30.143Z,18.75
2022-07-26T00:05:07.957Z,18.59
2022-07-26T00:07:45.162Z,18.43
2022-07-26T00:10:21.639Z,18.25
2022-07-26T00:12:57.905Z,18.12
2022-07-26T00:15:34.893Z,18.00
2022-07-26T00:18:12.419Z,17.86
2022-07-26T00:20:49.768Z,17.74
2022-07-26T00:23:27.497Z,17.67
2022-07-26T00:26:04.325Z,17.94
2022-07-26T00:28:41.397Z,18.10
2022-07-26T00:31:18.171Z,18.06
2022-07-26T00:33:54.792Z,18.00
2022-07-26T00:36:31.553Z,17.95
2022-07-26T00:39:08.259Z,17.89
2022-07-26T00:41:45.301Z,17.83
2022-07-26T00:44:22.168Z,17.75
2022-07-26T00:46:58.470Z,17.62
2022-07-26T00:49:35.162Z,17.48
2022-07-26T00:52:13.877Z,17.35
2022-07-26T00:54:50.798Z,17.24
2022-07-26T00:57:27.915Z,17.15
2022-07-26T01:00:06.072Z,17.09
2022-07-26T01:02:43.680Z,17.01
2022-07-26T01:05:20.591Z,16.99
2022-07-26T01:07:58.725Z,16.96
2022-07-26T01:10:35.498Z,16.90
2022-07-26T01:13:13.272Z,16.83
2022-07-26T01:15:50.642Z,16.79
2022-07-26T01:18:27.192Z,16.75
2022-07-26T01:21:13.133Z,16.69
2022-07-26T01:23:50.701Z,16.59
2022-07-26T01:26:27.204Z,16.61
2022-07-26T01:29:03.769Z,16.58
2022-07-26T01:31:40.269Z,16.55
2022-07-26T01:34:17.223Z,16.53
2022-07-26T01:36:56.849Z,16.51
2022-07-26T01:39:33.382Z,16.50
2022-07-26T01:42:10.472Z,16.79
2022-07-26T01:44:46.766Z,17.06
2022-07-26T01:47:23.310Z,17.12
2022-07-26T01:49:59.697Z,17.12
2022-07-26T01:52:36.223Z,17.18
2022-07-26T01:55:14.282Z,17.16
2022-07-26T01:57:52.066Z,17.19
2022-07-26T02:00:29.196Z,17.18
2022-07-26T02:03:06.260Z,17.16
2022-07-26T02:05:42.742Z,17.06
2022-07-26T02:08:19.248Z,16.88
2022-07-26T02:11:03.342Z,16.75
2022-07-26T02:13:43.544Z,16.64
2022-07-26T02:16:20.790Z,16.63
2022-07-26T02:18:57.205Z,16.54
2022-07-26T02:21:33.860Z,16.42
2022-07-26T02:24:11.300Z,16.33
2022-07-26T02:26:48.181Z,16.28
2022-07-26T02:29:25.003Z,16.23
2022-07-26T02:32:02.152Z,16.18
2022-07-26T02:34:38.580Z,16.16
2022-07-26T02:37:15.381Z,16.14
2022-07-26T02:39:51.911Z,16.25
2022-07-26T02:42:28.330Z,16.72
2022-07-26T02:45:05.229Z,16.80
2022-07-26T02:47:50.944Z,16.69
2022-07-26T02:50:30.493Z,16.64
2022-07-26T02:53:07.168Z,17.03
2022-07-26T02:55:43.414Z,17.52
2022-07-26T02:58:21.744Z,17.76
2022-07-26T03:00:58.409Z,17.64
2022-07-26T03:03:36.668Z,17.59
2022-07-26T03:06:14.727Z,17.58
2022-07-26T03:08:52.304Z,17.44
2022-07-26T03:11:28.763Z,17.35
2022-07-26T03:14:05.494Z,17.25
2022-07-26T03:16:43.314Z,17.13
2022-07-26T03:19:19.748Z,17.02
2022-07-26T03:21:56.202Z,17.06
2022-07-26T03:24:32.507Z,17.02
2022-07-26T03:27:09.132Z,17.03
2022-07-26T03:29:45.804Z,17.15
2022-07-26T03:32:22.291Z,17.22
2022-07-26T03:34:58.797Z,17.26
2022-07-26T03:37:46.181Z,17.36
2022-07-26T03:40:24.339Z,17.60
2022-07-26T03:43:01.004Z,17.62
2022-07-26T03:45:39.409Z,17.67
2022-07-26T03:48:16.043Z,17.90
2022-07-26T03:50:52.489Z,18.07
2022-07-26T03:53:29.196Z,18.13
2022-07-26T03:56:23.406Z,18.18
2022-07-26T03:59:01.827Z,18.25
2022-07-26T04:01:41.980Z,18.35
2022-07-26T04:04:20.898Z,18.54
2022-07-26T04:07:03.875Z,18.84
2022-07-26T04:09:40.718Z,19.17
2022-07-26T04:12:18.191Z,19.39
2022-07-26T04:14:54.501Z,19.51
2022-07-26T04:17:33.069Z,19.55
2022-07-26T04:20:12.771Z,19.61
2022-07-26T04:22:49.241Z,19.73
2022-07-26T04:25:26.248Z,19.89
2022-07-26T04:28:03.224Z,20.06
2022-07-26T04:30:40.214Z,20.23
2022-07-26T04:33:16.694Z,20.58
2022-07-26T04:35:53.391Z,21.14
2022-07-26T04:38:29.705Z,22.41
2022-07-26T04:41:06.313Z,23.74
2022-07-26T04:43:42.768Z,25.21
2022-07-26T04:46:19.594Z,26.28
2022-07-26T04:48:56.010Z,26.95
2022-07-26T04:51:32.712Z,27.63
2022-07-26T04:54:09.862Z,28.29
2022-07-26T04:56:46.692Z,28.67
2022-07-26T04:59:23.329Z,28.92
2022-07-26T05:02:00.247Z,29.25
2022-07-26T05:04:37.055Z,29.93
2022-07-26T05:07:13.801Z,30.84
2022-07-26T05:09:50.508Z,31.77
2022-07-26T05:12:26.937Z,32.60
2022-07-26T05:15:04.504Z,33.22
2022-07-26T05:17:44.366Z,33.72
2022-07-26T05:20:21.415Z,33.96
2022-07-26T05:22:57.762Z,34.04
2022-07-26T05:25:34.366Z,34.06
2022-07-26T05:28:11.795Z,33.82
2022-07-26T05:30:49.158Z,33.47
2022-07-26T05:33:25.614Z,33.78
2022-07-26T05:36:02.566Z,34.18
2022-07-26T05:38:40.212Z,34.37
2022-07-26T05:41:17.013Z,34.70
2022-07-26T05:43:53.764Z,35.10
2022-07-26T05:46:30.505Z,35.38
2022-07-26T05:49:07.366Z,35.53
2022-07-26T05:51:43.720Z,35.37
2022-07-26T05:54:22.823Z,34.83
2022-07-26T05:56:59.471Z,34.23
2022-07-26T05:59:36.499Z,33.92
2022-07-26T06:02:12.892Z,33.54
2022-07-26T06:04:49.450Z,33.05
2022-07-26T06:07:26.049Z,32.58
2022-07-26T06:10:02.433Z,32.71
2022-07-26T06:12:39.156Z,33.16
2022-07-26T06:15:16.212Z,33.18
2022-07-26T06:17:52.942Z,33.01
2022-07-26T06:20:29.704Z,32.98
2022-07-26T06:23:06.135Z,32.76
2022-07-26T06:25:42.858Z,32.21
2022-07-26T06:28:19.248Z,31.58
2022-07-26T06:30:55.667Z,30.88
2022-07-26T06:33:32.376Z,30.22
2022-07-26T06:36:09.585Z,29.70
2022-07-26T06:38:46.245Z,29.36
2022-07-26T06:41:25.272Z,29.12
2022-07-26T06:44:01.935Z,28.95
2022-07-26T06:46:38.783Z,29.12
2022-07-26T06:49:22.253Z,29.91
2022-07-26T06:51:59.087Z,30.70
2022-07-26T06:54:35.619Z,30.88
2022-07-26T06:57:11.934Z,31.18
2022-07-26T06:59:48.531Z,31.60
2022-07-26T07:02:25.270Z,32.14
2022-07-26T07:05:01.930Z,32.86
2022-07-26T07:07:42.242Z,33.62
2022-07-26T07:10:17.936Z,34.03
2022-07-26T07:12:57.181Z,33.91
2022-07-26T07:15:33.788Z,33.95
2022-07-26T07:18:10.552Z,34.46
2022-07-26T07:20:47.277Z,35.04
2022-07-26T07:23:23.930Z,35.63
2022-07-26T07:26:00.938Z,36.29
2022-07-26T07:28:38.656Z,36.75
2022-07-26T07:31:15.266Z,36.92
2022-07-26T07:33:53.331Z,36.92
2022-07-26T07:36:30.414Z,37.03
2022-07-26T07:39:09.091Z,37.25
2022-07-26T07:41:51.268Z,37.24
2022-07-26T07:44:27.595Z,37.06
2022-07-26T07:47:04.191Z,36.99
2022-07-26T07:49:41.385Z,37.20
2022-07-26T07:52:17.714Z,37.43
2022-07-26T07:55:06.566Z,37.77
2022-07-26T07:57:51.304Z,37.99
2022-07-26T08:00:28.692Z,38.19
2022-07-26T08:03:05.261Z,38.27
2022-07-26T08:05:42.112Z,38.41
2022-07-26T08:08:18.591Z,38.57
2022-07-26T08:10:55.608Z,38.66
2022-07-26T08:13:33.474Z,38.70
2022-07-26T08:16:10.985Z,38.71
2022-07-26T08:18:57.245Z,38.63
2022-07-26T08:21:46.856Z,38.70
2022-07-26T08:24:23.709Z,38.69
2022-07-26T08:27:00.174Z,38.61
2022-07-26T08:29:36.606Z,38.58
2022-07-26T08:32:13.587Z,38.49
2022-07-26T08:34:49.863Z,38.23
2022-07-26T08:37:26.302Z,37.76
2022-07-26T08:40:02.642Z,37.17
2022-07-26T08:42:39.138Z,36.36
2022-07-26T08:45:24.447Z,35.65
2022-07-26T08:48:18.591Z,34.92
2022-07-26T08:50:56.538Z,34.24
2022-07-26T08:53:34.544Z,33.68
2022-07-26T08:56:14.347Z,33.21
2022-07-26T08:58:50.714Z,32.87
2022-07-26T09:01:27.219Z,32.48
2022-07-26T09:04:31.495Z,32.09
2022-07-26T09:07:13.966Z,31.83
2022-07-26T09:10:07.420Z,31.61
2022-07-26T09:12:46.883Z,31.24
2022-07-26T09:15:29.899Z,30.88
2022-07-26T09:18:07.013Z,30.50
2022-07-26T09:20:51.098Z,30.11
2022-07-26T09:23:40.215Z,29.77
2022-07-26T09:26:21.223Z,29.38
2022-07-26T09:29:10.443Z,29.05
2022-07-26T09:31:47.311Z,28.77
2022-07-26T09:34:31.479Z,28.55
2022-07-26T09:37:12.281Z,28.41
2022-07-26T09:40:01.851Z,28.45
2022-07-26T09:42:39.688Z,28.58
2022-07-26T09:45:22.862Z,28.69
2022-07-26T09:47:59.963Z,28.87
2022-07-26T09:50:37.804Z,29.02
2022-07-26T09:53:15.867Z,28.95
2022-07-26T09:56:01.853Z,28.75
2022-07-26T09:58:41.061Z,28.67
2022-07-26T10:01:17.751Z,28.62
2022-07-26T10:03:56.328Z,28.50
2022-07-26T10:06:33.162Z,28.36
2022-07-26T10:09:10.967Z,28.14
2022-07-26T10:11:56.400Z,27.91
2022-07-26T10:14:48.293Z,27.66
2022-07-26T10:17:47.073Z,27.41
2022-07-26T10:20:51.315Z,27.21
2022-07-26T10:23:53.454Z,27.03
2022-07-26T10:26:45.836Z,26.78
2022-07-26T10:29:32.604Z,26.56
2022-07-26T10:32:23.032Z,26.37
2022-07-26T10:34:59.369Z,26.25
2022-07-26T10:37:35.648Z,26.19
2022-07-26T10:40:32.453Z,26.12
2022-07-26T10:43:39.522Z,26.10
2022-07-26T10:46:31.112Z,26.04
2022-07-26T10:49:08.960Z,25.93
2022-07-26T10:51:46.339Z,25.83
2022-07-26T10:54:23.123Z,25.76
2022-07-26T10:56:59.663Z,25.69
2022-07-26T10:59:55.392Z,25.58
2022-07-26T11:02:36.180Z,25.46
2022-07-26T11:05:17.166Z,25.39
2022-07-26T11:08:10.386Z,25.28
2022-07-26T11:10:50.257Z,25.20
2022-07-26T11:13:27.092Z,25.16
2022-07-26T11:16:10.803Z,25.14
2022-07-26T11:18:47.143Z,25.17
2022-07-26T11:21:24.813Z,25.14
2022-07-26T11:24:07.361Z,25.08
2022-07-26T11:26:53.785Z,25.02
2022-07-26T11:29:40.833Z,24.95
2022-07-26T11:32:27.357Z,24.83
2022-07-26T11:35:08.391Z,24.70
2022-07-26T11:38:07.803Z,24.57
2022-07-26T11:40:53.077Z,24.42
2022-07-26T11:43:37.452Z,24.31
2022-07-26T11:46:14.231Z,24.26
2022-07-26T11:48:55.030Z,24.20
2022-07-26T11:51:31.500Z,24.21
2022-07-26T11:54:09.510Z,24.27
2022-07-26T11:56:56.389Z,24.33
2022-07-26T11:59:36.007Z,24.40
2022-07-26T12:02:13.534Z,24.40
2022-07-26T12:04:50.074Z,24.36
2022-07-26T12:07:26.559Z,24.33
2022-07-26T12:10:02.844Z,24.29
2022-07-26T12:12:39.206Z,24.40
2022-07-26T12:15:16.804Z,24.94
2022-07-26T12:18:05.653Z,25.38
2022-07-26T12:21:00.647Z,25.83
2022-07-26T12:23:53.258Z,26.10
2022-07-26T12:26:31.851Z,26.30
2022-07-26T12:29:27.659Z,26.27
2022-07-26T12:32:15.522Z,25.72
2022-07-26T12:35:06.899Z,25.23
2022-07-26T12:37:55.767Z,24.87
2022-07-26T12:40:41.393Z,24.64
2022-07-26T12:43:17.666Z,24.49
2022-07-26T12:45:54.072Z,24.53
2022-07-26T12:48:30.458Z,25.05
2022-07-26T12:51:08.929Z,25.59
2022-07-26T12:53:45.229Z,26.01
2022-07-26T12:56:21.481Z,26.32
2022-07-26T12:59:01.645Z,26.56
2022-07-26T13:01:39.363Z,26.58
2022-07-26T13:04:16.100Z,26.59
2022-07-26T13:06:52.812Z,26.75
2022-07-26T13:09:29.765Z,26.81
2022-07-26T13:12:08.838Z,26.81
2022-07-26T13:14:48.361Z,26.70
2022-07-26T13:17:24.984Z,26.42
2022-07-26T13:20:01.838Z,26.37
2022-07-26T13:22:39.027Z,26.20
2022-07-26T13:25:16.017Z,25.86
2022-07-26T13:27:53.634Z,25.83
2022-07-26T13:30:29.954Z,25.80
2022-07-26T13:33:06.819Z,25.56
2022-07-26T13:35:43.542Z,25.32
2022-07-26T13:38:20.465Z,25.18
2022-07-26T13:40:57.326Z,25.06
2022-07-26T13:43:35.842Z,24.92
2022-07-26T13:46:12.811Z,24.78
2022-07-26T13:49:00.536Z,24.64
2022-07-26T13:51:58.758Z,24.53
2022-07-26T13:54:38.359Z,24.40
2022-07-26T13:57:14.684Z,24.28
2022-07-26T13:59:51.176Z,24.03
2022-07-26T14:02:27.740Z,23.75
2022-07-26T14:05:04.456Z,23.51
2022-07-26T14:07:42.573Z,23.22
2022-07-26T14:10:19.501Z,22.89
2022-07-26T14:12:56.585Z,22.58
2022-07-26T14:15:33.378Z,22.32
2022-07-26T14:18:11.912Z,22.31
2022-07-26T14:20:48.537Z,22.05
2022-07-26T14:23:24.911Z,21.71
2022-07-26T14:26:01.587Z,21.59
2022-07-26T14:28:38.225Z,21.84
2022-07-26T14:31:15.323Z,22.05
2022-07-26T14:33:52.274Z,22.16
2022-07-26T14:36:28.673Z,22.29
2022-07-26T14:39:05.320Z,22.43
2022-07-26T14:41:42.317Z,22.48
2022-07-26T14:44:19.115Z,22.46
2022-07-26T14:46:55.744Z,22.42
2022-07-26T14:49:32.405Z,22.58
2022-07-26T14:52:10.858Z,22.73
2022-07-26T14:54:47.287Z,22.86
2022-07-26T14:57:23.755Z,23.03
2022-07-26T15:00:00.565Z,23.20
2022-07-26T15:02:38.935Z,23.31
2022-07-26T15:05:18.255Z,23.43
2022-07-26T15:07:54.938Z,23.71
2022-07-26T15:10:31.665Z,23.83
2022-07-26T15:13:11.822Z,23.79
2022-07-26T15:15:48.810Z,23.62
2022-07-26T15:18:25.603Z,23.65
2022-07-26T15:21:02.491Z,23.69
2022-07-26T15:23:40.096Z,23.48
2022-07-26T15:26:16.503Z,23.29
2022-07-26T15:28:53.238Z,23.10
2022-07-26T15:31:37.681Z,22.85
2022-07-26T15:34:14.903Z,22.61
2022-07-26T15:36:51.390Z,22.41
2022-07-26T15:39:28.220Z,22.43
2022-07-26T15:42:07.905Z,22.34
2022-07-26T15:44:46.930Z,22.19
2022-07-26T15:47:53.055Z,22.07
2022-07-26T15:50:21.570Z,21.98
2022-07-26T15:52:58.217Z,21.93
2022-07-26T15:55:35.245Z,21.84
2022-07-26T15:58:13.358Z,21.74
2022-07-26T16:00:50.768Z,21.66
2022-07-26T16:03:27.117Z,21.58
2022-07-26T16:06:06.034Z,21.51
2022-07-26T16:09:05.921Z,21.46
2022-07-26T16:11:39.891Z,21.42
2022-07-26T16:14:16.728Z,21.46
2022-07-26T16:16:53.218Z,21.90
2022-07-26T16:19:29.761Z,22.36
2022-07-26T16:22:08.489Z,22.65
2022-07-26T16:24:45.866Z,22.90
2022-07-26T16:27:22.437Z,23.15
2022-07-26T16:29:58.886Z,23.29
2022-07-26T16:32:35.277Z,23.38
2022-07-26T16:35:14.092Z,23.42
2022-07-26T16:37:50.890Z,23.42
2022-07-26T16:40:27.549Z,23.47
2022-07-26T16:43:11.927Z,23.56
2022-07-26T16:45:48.799Z,23.61
2022-07-26T16:48:25.636Z,23.66
2022-07-26T16:51:02.061Z,23.66
2022-07-26T16:53:38.864Z,23.65
2022-07-26T16:56:15.252Z,23.68
2022-07-26T16:58:52.091Z,23.69
2022-07-26T17:01:28.759Z,23.68
2022-07-26T17:04:05.595Z,23.73
2022-07-26T17:06:52.131Z,23.72
2022-07-26T17:09:38.813Z,23.54
2022-07-26T17:12:15.700Z,23.37
2022-07-26T17:14:52.602Z,23.33
2022-07-26T17:17:29.343Z,23.40
2022-07-26T17:20:07.378Z,23.43
2022-07-26T17:22:44.012Z,23.38
2022-07-26T17:25:20.510Z,23.21
2022-07-26T17:27:58.686Z,23.12
2022-07-26T17:30:35.217Z,23.06
2022-07-26T17:33:11.615Z,23.12
2022-07-26T17:35:48.166Z,23.14
2022-07-26T17:38:24.799Z,23.12
2022-07-26T17:41:03.967Z,23.08
2022-07-26T17:43:42.181Z,23.04
2022-07-26T17:46:19.401Z,22.99
2022-07-26T17:48:55.854Z,22.93
2022-07-26T17:51:32.736Z,22.88
2022-07-26T17:54:10.306Z,22.80
2022-07-26T17:56:47.240Z,22.64
2022-07-26T17:59:24.514Z,22.45
2022-07-26T18:02:01.220Z,22.26
2022-07-26T18:04:37.917Z,22.12
2022-07-26T18:07:14.613Z,22.01
2022-07-26T18:09:51.202Z,21.84
2022-07-26T18:12:27.830Z,21.68
2022-07-26T18:15:04.145Z,21.54
2022-07-26T18:17:41.180Z,21.39
2022-07-26T18:20:18.595Z,21.24
2022-07-26T18:22:55.691Z,21.12
2022-07-26T18:25:32.922Z,20.98
2022-07-26T18:28:11.149Z,20.84
2022-07-26T18:30:48.485Z,20.67
2022-07-26T18:33:25.223Z,20.61
2022-07-26T18:36:03.249Z,20.47
2022-07-26T18:38:41.418Z,20.30
2022-07-26T18:41:18.455Z,20.16
2022-07-26T18:43:55.160Z,20.01
2022-07-26T18:46:32.339Z,19.88
2022-07-26T18:49:15.774Z,19.95
2022-07-26T18:51:56.317Z,20.22
2022-07-26T18:54:33.130Z,20.43
2022-07-26T18:57:09.893Z,20.52
2022-07-26T18:59:48.054Z,20.67
2022-07-26T19:02:25.497Z,20.77
2022-07-26T19:05:02.709Z,20.74
2022-07-26T19:07:39.994Z,20.65
2022-07-26T19:10:17.812Z,20.58
2022-07-26T19:12:54.777Z,20.46
2022-07-26T19:15:32.393Z,20.33
2022-07-26T19:18:16.930Z,20.24
2022-07-26T19:20:53.620Z,20.17
2022-07-26T19:23:30.687Z,20.10
2022-07-26T19:26:07.324Z,19.98
2022-07-26T19:28:43.948Z,19.87
2022-07-26T19:31:21.583Z,19.77
2022-07-26T19:33:58.167Z,19.68
2022-07-26T19:36:35.592Z,19.62
2022-07-26T19:39:13.293Z,19.55
2022-07-26T19:41:50.536Z,19.48
2022-07-26T19:44:26.957Z,19.40
2022-07-26T19:47:03.322Z,19.33
2022-07-26T19:49:40.427Z,19.26
2022-07-26T19:52:17.130Z,19.19
2022-07-26T19:54:53.558Z,19.13
2022-07-26T19:57:30.444Z,19.07
2022-07-26T20:00:09.583Z,19.00
2022-07-26T20:02:49.239Z,18.94
2022-07-26T20:05:26.051Z,18.88
2022-07-26T20:08:02.444Z,18.83
2022-07-26T20:10:38.822Z,18.77
2022-07-26T20:13:15.273Z,18.70
2022-07-26T20:15:51.600Z,18.64
2022-07-26T20:18:30.777Z,18.59
2022-07-26T20:21:07.213Z,18.54
2022-07-26T20:23:45.006Z,18.48
2022-07-26T20:26:21.824Z,18.44
2022-07-26T20:29:00.590Z,18.41
2022-07-26T20:31:37.970Z,18.38
2022-07-26T20:34:14.573Z,18.38
2022-07-26T20:36:53.518Z,18.35
2022-07-26T20:39:30.321Z,18.30
2022-07-26T20:42:06.994Z,18.25
2022-07-26T20:44:47.937Z,18.20
2022-07-26T20:47:25.401Z,18.15
2022-07-26T20:50:04.023Z,18.11
2022-07-26T20:52:41.210Z,18.06
2022-07-26T20:55:19.018Z,18.01
2022-07-26T20:57:55.462Z,17.97
2022-07-26T21:00:32.290Z,17.93
2022-07-26T21:03:09.282Z,17.90
2022-07-26T21:05:45.860Z,17.88
2022-07-26T21:08:22.962Z,17.84
2022-07-26T21:10:59.500Z,17.80
2022-07-26T21:13:36.518Z,17.77
2022-07-26T21:16:13.466Z,17.72
2022-07-26T21:18:53.151Z,17.67
2022-07-26T21:21:30.750Z,17.62
2022-07-26T21:24:08.503Z,17.57
2022-07-26T21:26:45.695Z,17.53
2022-07-26T21:29:22.122Z,17.47
2022-07-26T21:31:58.845Z,17.42
2022-07-26T21:34:35.369Z,17.36
2022-07-26T21:37:11.911Z,17.31
2022-07-26T21:39:48.348Z,17.28
2022-07-26T21:42:26.813Z,17.23
2022-07-26T21:45:03.225Z,17.15
2022-07-26T21:47:39.922Z,17.10
2022-07-26T21:50:17.293Z,17.06
2022-07-26T21:52:53.922Z,17.02
2022-07-26T21:55:30.542Z,16.98
2022-07-26T21:58:07.647Z,16.94
2022-07-26T22:00:44.124Z,16.91
2022-07-26T22:03:21.159Z,16.87
2022-07-26T22:05:58.461Z,16.84
2022-07-26T22:08:36.012Z,16.82
2022-07-26T22:11:12.974Z,16.80
2022-07-26T22:13:49.458Z,16.78
2022-07-26T22:16:26.223Z,16.76
2022-07-26T22:19:02.711Z,16.77
2022-07-26T22:21:39.883Z,16.78
2022-07-26T22:24:16.222Z,16.78
2022-07-26T22:26:52.640Z,16.78
2022-07-26T22:29:39.961Z,16.78
2022-07-26T22:32:16.967Z,16.81
2022-07-26T22:34:53.451Z,16.80
2022-07-26T22:37:30.228Z,16.76
2022-07-26T22:40:08.145Z,16.73
2022-07-26T22:42:45.960Z,16.71
2022-07-26T22:45:22.454Z,16.69
2022-07-26T22:47:59.728Z,16.69
2022-07-26T22:50:36.530Z,16.69
2022-07-26T22:53:13.015Z,16.66
2022-07-26T22:55:49.260Z,16.65
2022-07-26T22:58:25.814Z,16.64
2022-07-26T23:01:02.286Z,16.63
2022-07-26T23:03:38.724Z,16.61
2022-07-26T23:06:31.403Z,16.58
2022-07-26T23:09:09.211Z,16.54
2022-07-26T23:11:46.162Z,16.50
2022-07-26T23:14:22.468Z,16.47
2022-07-26T23:16:58.793Z,16.42
2022-07-26T23:19:35.433Z,16.38
2022-07-26T23:22:11.813Z,16.33
2022-07-26T23:24:48.560Z,16.30
2022-07-26T23:27:25.055Z,16.28
2022-07-26T23:30:01.333Z,16.25
2022-07-26T23:32:37.620Z,16.24
2022-07-26T23:35:15.953Z,16.23
2022-07-26T23:37:52.269Z,16.21
2022-07-26T23:40:28.806Z,16.19
2022-07-26T23:43:06.585Z,16.18
2022-07-26T23:45:42.944Z,16.15
2022-07-26T23:48:19.605Z,16.12
2022-07-26T23:50:56.295Z,16.11
2022-07-26T23:53:32.891Z,16.12
2022-07-26T23:56:09.943Z,16.10
2022-07-26T23:58:46.615Z,16.09
